Flight Track Log - Related Links

Times and Time Zones

All times are in EDT time to prevent confusion due to time zone crossing. See the CSH820 flight status page for this flight to view local times or setup timezone preferences in your user account.

Time Position Orientation Groundspeed Altitude Reporting Facility
EDT Latitude Longitude Course Direction KTS MPH feet Rate Location/Type
Tue 02:01:00 AM 25.6406 121.5732 North  Level Estimated
Tue 02:02:00 AM 25.7120 121.5759 North  Level Estimated
Tue 02:03:00 AM 25.7834 121.5786 North  Level Estimated
Tue 02:04:00 AM 25.8548 121.5813 North  Level Estimated
Tue 02:05:00 AM 25.9262 121.5840 North  Level Estimated
Tue 02:06:00 AM 25.9976 121.5868 North  Level Estimated
Tue 02:07:00 AM 26.0690 121.5895 North  Level Estimated
Tue 02:08:00 AM 26.1380 121.5921 North  Level Estimated
Tue 02:09:00 AM 26.2069 121.5947 North  Level Estimated
Tue 02:10:00 AM 26.2759 121.5974 North  Level Estimated
Tue 02:11:00 AM 26.3448 121.6000 North  Level Estimated
Tue 02:12:00 AM 26.4138 121.6027 North  Level Estimated
Tue 02:13:00 AM 26.4828 121.6053 North  Level Estimated
Tue 02:14:00 AM 26.5517 121.6080 North  Level Estimated
Tue 02:15:00 AM 26.6207 121.6106 North  Level Estimated
Tue 02:16:00 AM 26.6896 121.6133 North  Level Estimated
Tue 02:17:00 AM 26.7586 121.6160 North  Level Estimated
Tue 02:18:00 AM 26.8276 121.6186 North  Level Estimated
Tue 02:19:00 AM 26.8965 121.6213 North  Level Estimated
Tue 02:20:00 AM 26.9655 121.6239 North  Level Estimated
Tue 02:21:00 AM 27.0345 121.6266 North  Level Estimated
Tue 02:22:00 AM 27.1034 121.6293 North  Level Estimated
Tue 02:23:00 AM 27.1724 121.6320 North  Level Estimated
Tue 02:24:00 AM 27.2413 121.6347 North  Level Estimated
Tue 02:25:00 AM 27.3103 121.6374 North  Level Estimated
Tue 02:26:00 AM 27.3793 121.6400 North  Level Estimated
Tue 02:27:00 AM 27.4482 121.6427 North  Level Estimated
Tue 02:28:00 AM 27.5172 121.6454 North  Level Estimated
Tue 02:29:00 AM 27.5861 121.6481 North  Level Estimated
Tue 02:30:00 AM 27.6551 121.6508 North  Level Estimated
Tue 02:31:00 AM 27.7241 121.6535 North  Level Estimated
Tue 02:32:00 AM 27.7930 121.6562 North  Level Estimated
Tue 02:33:00 AM 27.8620 121.6590 North  Level Estimated
Tue 02:34:00 AM 27.9310 121.6617 North  Level Estimated
Tue 02:35:00 AM 27.9999 121.6644 North  Level Estimated
Tue 02:36:00 AM 28.0689 121.6671 North  Level Estimated
Tue 02:37:00 AM 28.1378 121.6699 North  Level Estimated
Tue 02:38:00 AM 28.2068 121.6726 North  Level Estimated
Tue 02:39:00 AM 28.2757 121.6753 North  Level Estimated
Tue 02:40:00 AM 28.3447 121.6781 North  Level Estimated
Tue 02:41:00 AM 28.4137 121.6808 North  Level Estimated
Tue 02:42:00 AM 28.4826 121.6835 North  Level Estimated
Tue 02:43:00 AM 28.5516 121.6863 North  Level Estimated
Tue 02:44:00 AM 28.6206 121.6891 North  Level Estimated
Tue 02:45:00 AM 28.6895 121.6918 North  Level Estimated
Tue 02:46:00 AM 28.7585 121.6946 North  Level Estimated
Tue 02:47:00 AM 28.8274 121.6973 North  Level Estimated
Tue 02:48:00 AM 28.8964 121.7001 North  Level Estimated
Tue 02:49:00 AM 28.9654 121.7029 North  Level Estimated
Tue 02:50:00 AM 29.0343 121.7057 North  Level Estimated
Tue 02:51:00 AM 29.1033 121.7084 North  Level Estimated
Tue 02:52:00 AM 29.1722 121.7112 North  Level Estimated
Tue 02:53:00 AM 29.2412 121.7140 North  Level Estimated
Tue 02:54:00 AM 29.3102 121.7168 North  Level Estimated
Tue 02:55:00 AM 29.3791 121.7196 North  Level Estimated
Tue 02:56:00 AM 29.4481 121.7224 North  Level Estimated
Tue 02:57:00 AM 29.5170 121.7252 North  Level Estimated
Tue 02:58:00 AM 29.5860 121.7280 North  Level Estimated
Tue 02:59:00 AM 29.6549 121.7308 North  Level Estimated
Tue 03:00:00 AM 29.7239 121.7336 North  Level Estimated
Tue 03:01:00 AM 29.7929 121.7364 North  Level Estimated
Tue 03:02:00 AM 29.8618 121.7393 North  Level Estimated
Tue 03:03:00 AM 29.9308 121.7421 North  Level Estimated
Tue 03:04:00 AM 29.9998 121.7449 North  Level Estimated
Tue 03:05:00 AM 30.0687 121.7477 North  Level Estimated
Tue 03:06:00 AM 30.1377 121.7506 North  Level Estimated
Tue 03:07:00 AM 30.2066 121.7534 North  Level Estimated
Tue 03:08:00 AM 30.2756 121.7562 North  Level Estimated
Tue 03:09:00 AM 30.3445 121.7591 North  Level Estimated
Tue 03:10:00 AM 30.4135 121.7619 North  Level Estimated
Tue 03:11:00 AM 30.4825 121.7648 North  Level Estimated
Tue 03:12:00 AM 30.5514 121.7677 North  Level Estimated
Tue 03:13:00 AM 30.6204 121.7705 North  Level Estimated
Tue 03:14:00 AM 30.6893 121.7734 North  Level Estimated
Tue 03:15:00 AM 30.7583 121.7763 North  Level Estimated
Tue 03:16:00 AM 30.8272 121.7792 North  Level Estimated
Tue 03:17:00 AM 30.8962 121.7820 North  Level Estimated
Tue 03:18:00 AM 30.9652 121.7849 North  Level Estimated
Tue 03:19:00 AM 31.0341 121.7878 North  Level Estimated
Tue 03:20:00 AM 31.1031 121.7907 North  Level Estimated
Tue 03:21:00 AM 31.1428 121.7924 North  Level Estimated
Tue 03:22:00 AM 31.1428 121.7924 North  Level Estimated
Tue 03:23:00 AM 31.1428 121.7924 North  Level Estimated
Tue 03:24:00 AM 31.1428 121.7924 North  Level Estimated

Login

Don't have an account? Register now (free) for customized features, flight alerts, and more!